Terminal Aerodrome Forecast
Issued by NWS Twin Cities, MN

Home | Current Version | Previous Version | Text Only | Print | Product List | Glossary On
Versions: 1 2 3 4 5 6 7 8 9 10 11 12 13 14 15 16 17 18 19 20 21 22 23 24 25 26 27 28 29 30
000
FTUS43 KMPX 021100
TAFMSP
TAF
KMSP 021140Z 0212/0318 00000KT 4SM BR OVC005
     FM021400 34003KT 5SM BR SCT004 OVC007
     FM021700 31006KT 6SM -RA SCT008 OVC015
     FM021900 31008KT 4SM -RA SCT010 OVC018
     FM022300 29006KT P6SM SCT020 BKN080
     FM030900 30012KT P6SM SCT030
     FM031300 30016G25KT P6SM BKN030=

USA.gov is the U.S. government's official web portal to all federal, state and local government web resources and services.